sensor_id;sensor_type;location;lat;lon;timestamp;P1;durP1;ratioP1;P2;durP2;ratioP2
80215;SDS011;69532;37.974;23.708;2023-05-14T00:00:50;6.65;;;3.60;;
80215;SDS011;69532;37.974;23.708;2023-05-14T00:03:16;6.38;;;3.60;;
80215;SDS011;69532;37.974;23.708;2023-05-14T00:05:41;7.85;;;3.78;;
80215;SDS011;69532;37.974;23.708;2023-05-14T00:08:07;5.90;;;3.00;;
80215;SDS011;69532;37.974;23.708;2023-05-14T00:10:33;4.90;;;2.63;;
80215;SDS011;69532;37.974;23.708;2023-05-14T00:12:59;6.45;;;3.50;;
80215;SDS011;69532;37.974;23.708;2023-05-14T00:15:24;6.75;;;3.85;;
80215;SDS011;69532;37.974;23.708;2023-05-14T00:17:50;6.97;;;3.42;;
80215;SDS011;69532;37.974;23.708;2023-05-14T00:20:16;7.28;;;4.43;;
80215;SDS011;69532;37.974;23.708;2023-05-14T00:22:42;6.60;;;3.30;;
80215;SDS011;69532;37.974;23.708;2023-05-14T00:25:08;6.03;;;2.97;;
80215;SDS011;69532;37.974;23.708;2023-05-14T00:27:34;5.32;;;2.75;;
80215;SDS011;69532;37.974;23.708;2023-05-14T00:30:02;5.75;;;3.00;;
80215;SDS011;69532;37.974;23.708;2023-05-14T00:32:29;5.63;;;2.78;;
80215;SDS011;69532;37.974;23.708;2023-05-14T00:34:55;5.82;;;3.00;;
80215;SDS011;69532;37.974;23.708;2023-05-14T00:37:21;6.10;;;3.10;;
80215;SDS011;69532;37.974;23.708;2023-05-14T00:39:46;6.22;;;3.22;;
80215;SDS011;69532;37.974;23.708;2023-05-14T00:42:12;5.47;;;2.67;;
80215;SDS011;69532;37.974;23.708;2023-05-14T00:44:37;6.68;;;3.50;;
80215;SDS011;69532;37.974;23.708;2023-05-14T00:47:03;6.13;;;2.90;;
80215;SDS011;69532;37.974;23.708;2023-05-14T00:49:29;7.05;;;3.55;;
80215;SDS011;69532;37.974;23.708;2023-05-14T00:51:55;6.80;;;3.03;;
80215;SDS011;69532;37.974;23.708;2023-05-14T00:54:23;7.45;;;3.67;;
80215;SDS011;69532;37.974;23.708;2023-05-14T00:56:49;7.57;;;3.67;;
80215;SDS011;69532;37.974;23.708;2023-05-14T00:59:15;6.90;;;3.95;;
80215;SDS011;69532;37.974;23.708;2023-05-14T01:01:40;6.95;;;3.67;;
80215;SDS011;69532;37.974;23.708;2023-05-14T01:04:06;5.72;;;3.38;;
80215;SDS011;69532;37.974;23.708;2023-05-14T01:09:17;7.80;;;3.83;;
80215;SDS011;69532;37.974;23.708;2023-05-14T01:12:26;5.63;;;3.40;;
80215;SDS011;69532;37.974;23.708;2023-05-14T01:15:25;7.30;;;3.72;;
80215;SDS011;69532;37.974;23.708;2023-05-14T01:17:58;7.82;;;3.65;;
80215;SDS011;69532;37.974;23.708;2023-05-14T01:20:25;5.72;;;3.33;;
80215;SDS011;69532;37.974;23.708;2023-05-14T01:22:51;6.43;;;3.97;;
80215;SDS011;69532;37.974;23.708;2023-05-14T01:25:17;7.07;;;3.80;;
80215;SDS011;69532;37.974;23.708;2023-05-14T01:27:52;5.88;;;3.10;;
80215;SDS011;69532;37.974;23.708;2023-05-14T01:30:28;6.57;;;3.10;;
80215;SDS011;69532;37.974;23.708;2023-05-14T01:33:01;6.05;;;3.03;;
80215;SDS011;69532;37.974;23.708;2023-05-14T01:35:30;6.68;;;3.90;;
80215;SDS011;69532;37.974;23.708;2023-05-14T01:37:58;6.10;;;3.22;;
80215;SDS011;69532;37.974;23.708;2023-05-14T01:40:25;7.68;;;3.88;;
80215;SDS011;69532;37.974;23.708;2023-05-14T01:42:51;8.30;;;4.30;;
80215;SDS011;69532;37.974;23.708;2023-05-14T01:45:21;5.97;;;3.40;;
80215;SDS011;69532;37.974;23.708;2023-05-14T01:47:47;6.28;;;3.33;;
80215;SDS011;69532;37.974;23.708;2023-05-14T01:50:13;7.07;;;4.32;;
80215;SDS011;69532;37.974;23.708;2023-05-14T01:52:39;7.82;;;4.43;;
80215;SDS011;69532;37.974;23.708;2023-05-14T01:55:05;8.82;;;4.68;;
80215;SDS011;69532;37.974;23.708;2023-05-14T01:57:31;8.57;;;4.25;;
80215;SDS011;69532;37.974;23.708;2023-05-14T01:59:57;7.47;;;4.18;;
80215;SDS011;69532;37.974;23.708;2023-05-14T02:02:23;8.30;;;4.45;;
80215;SDS011;69532;37.974;23.708;2023-05-14T02:04:48;7.18;;;4.55;;
80215;SDS011;69532;37.974;23.708;2023-05-14T02:07:14;9.63;;;4.20;;
80215;SDS011;69532;37.974;23.708;2023-05-14T02:09:40;6.15;;;3.20;;
80215;SDS011;69532;37.974;23.708;2023-05-14T02:12:07;6.50;;;3.35;;
80215;SDS011;69532;37.974;23.708;2023-05-14T02:14:33;6.22;;;3.60;;
80215;SDS011;69532;37.974;23.708;2023-05-14T02:16:58;6.40;;;3.17;;
80215;SDS011;69532;37.974;23.708;2023-05-14T02:19:24;6.00;;;3.03;;
80215;SDS011;69532;37.974;23.708;2023-05-14T02:21:50;5.53;;;3.25;;
80215;SDS011;69532;37.974;23.708;2023-05-14T02:24:16;5.93;;;3.20;;
80215;SDS011;69532;37.974;23.708;2023-05-14T02:26:41;7.03;;;3.17;;
80215;SDS011;69532;37.974;23.708;2023-05-14T02:29:07;6.18;;;3.38;;
80215;SDS011;69532;37.974;23.708;2023-05-14T02:31:33;8.13;;;3.97;;
80215;SDS011;69532;37.974;23.708;2023-05-14T02:34:02;7.07;;;3.97;;
80215;SDS011;69532;37.974;23.708;2023-05-14T02:36:28;5.85;;;3.42;;
80215;SDS011;69532;37.974;23.708;2023-05-14T02:38:54;5.93;;;3.55;;
80215;SDS011;69532;37.974;23.708;2023-05-14T02:41:22;7.03;;;4.05;;
80215;SDS011;69532;37.974;23.708;2023-05-14T02:43:48;8.10;;;4.20;;
80215;SDS011;69532;37.974;23.708;2023-05-14T02:46:13;8.43;;;4.63;;
80215;SDS011;69532;37.974;23.708;2023-05-14T02:48:39;7.53;;;4.32;;
80215;SDS011;69532;37.974;23.708;2023-05-14T02:51:05;7.70;;;4.47;;
80215;SDS011;69532;37.974;23.708;2023-05-14T02:53:31;6.88;;;4.05;;
80215;SDS011;69532;37.974;23.708;2023-05-14T02:55:57;9.13;;;4.50;;
80215;SDS011;69532;37.974;23.708;2023-05-14T02:58:23;8.07;;;4.72;;
80215;SDS011;69532;37.974;23.708;2023-05-14T03:00:49;7.85;;;4.45;;
80215;SDS011;69532;37.974;23.708;2023-05-14T03:03:15;8.40;;;4.65;;
80215;SDS011;69532;37.974;23.708;2023-05-14T03:05:40;10.13;;;4.82;;
80215;SDS011;69532;37.974;23.708;2023-05-14T03:08:06;8.40;;;4.80;;
80215;SDS011;69532;37.974;23.708;2023-05-14T03:10:32;7.15;;;4.35;;
80215;SDS011;69532;37.974;23.708;2023-05-14T03:12:58;8.88;;;4.97;;
80215;SDS011;69532;37.974;23.708;2023-05-14T03:15:23;7.95;;;4.40;;
80215;SDS011;69532;37.974;23.708;2023-05-14T03:17:49;7.70;;;4.45;;
80215;SDS011;69532;37.974;23.708;2023-05-14T03:20:15;6.22;;;3.78;;
80215;SDS011;69532;37.974;23.708;2023-05-14T03:22:41;6.05;;;3.88;;
80215;SDS011;69532;37.974;23.708;2023-05-14T03:25:07;6.75;;;3.78;;
80215;SDS011;69532;37.974;23.708;2023-05-14T03:27:33;6.50;;;3.58;;
80215;SDS011;69532;37.974;23.708;2023-05-14T03:29:58;6.90;;;3.90;;
80215;SDS011;69532;37.974;23.708;2023-05-14T03:32:24;6.80;;;3.65;;
80215;SDS011;69532;37.974;23.708;2023-05-14T03:34:50;6.53;;;3.83;;
80215;SDS011;69532;37.974;23.708;2023-05-14T03:37:16;6.57;;;3.53;;
80215;SDS011;69532;37.974;23.708;2023-05-14T03:39:42;5.45;;;3.30;;
80215;SDS011;69532;37.974;23.708;2023-05-14T03:42:07;5.90;;;3.40;;
80215;SDS011;69532;37.974;23.708;2023-05-14T03:44:33;6.78;;;3.95;;
80215;SDS011;69532;37.974;23.708;2023-05-14T03:46:59;6.47;;;3.47;;
80215;SDS011;69532;37.974;23.708;2023-05-14T03:49:24;6.38;;;3.45;;
80215;SDS011;69532;37.974;23.708;2023-05-14T03:51:50;7.38;;;3.90;;
80215;SDS011;69532;37.974;23.708;2023-05-14T03:54:15;6.20;;;3.88;;
80215;SDS011;69532;37.974;23.708;2023-05-14T03:56:41;7.22;;;4.20;;
80215;SDS011;69532;37.974;23.708;2023-05-14T03:59:07;7.93;;;4.88;;
80215;SDS011;69532;37.974;23.708;2023-05-14T04:01:33;7.78;;;4.40;;
80215;SDS011;69532;37.974;23.708;2023-05-14T04:03:58;6.65;;;4.13;;
80215;SDS011;69532;37.974;23.708;2023-05-14T04:06:24;11.95;;;4.80;;
80215;SDS011;69532;37.974;23.708;2023-05-14T04:08:50;7.10;;;4.45;;
80215;SDS011;69532;37.974;23.708;2023-05-14T04:11:15;9.48;;;5.10;;
80215;SDS011;69532;37.974;23.708;2023-05-14T04:13:41;6.97;;;4.60;;
80215;SDS011;69532;37.974;23.708;2023-05-14T04:16:07;6.22;;;3.90;;
80215;SDS011;69532;37.974;23.708;2023-05-14T04:18:32;9.80;;;5.38;;
80215;SDS011;69532;37.974;23.708;2023-05-14T04:20:59;8.30;;;4.72;;
80215;SDS011;69532;37.974;23.708;2023-05-14T04:23:25;9.68;;;5.25;;
80215;SDS011;69532;37.974;23.708;2023-05-14T04:25:51;8.05;;;4.53;;
80215;SDS011;69532;37.974;23.708;2023-05-14T04:28:17;6.72;;;4.28;;
80215;SDS011;69532;37.974;23.708;2023-05-14T04:30:42;8.30;;;4.28;;
80215;SDS011;69532;37.974;23.708;2023-05-14T04:33:09;7.53;;;4.78;;
80215;SDS011;69532;37.974;23.708;2023-05-14T04:35:35;7.22;;;4.68;;
80215;SDS011;69532;37.974;23.708;2023-05-14T04:38:01;7.63;;;4.30;;
80215;SDS011;69532;37.974;23.708;2023-05-14T04:40:27;8.55;;;4.90;;
80215;SDS011;69532;37.974;23.708;2023-05-14T04:42:52;8.63;;;4.63;;
80215;SDS011;69532;37.974;23.708;2023-05-14T04:45:18;8.07;;;4.47;;
80215;SDS011;69532;37.974;23.708;2023-05-14T04:47:44;7.55;;;4.32;;
80215;SDS011;69532;37.974;23.708;2023-05-14T04:50:10;6.50;;;4.47;;
80215;SDS011;69532;37.974;23.708;2023-05-14T04:52:37;7.45;;;4.95;;
80215;SDS011;69532;37.974;23.708;2023-05-14T04:55:03;7.57;;;5.10;;
80215;SDS011;69532;37.974;23.708;2023-05-14T04:57:29;7.22;;;4.43;;
80215;SDS011;69532;37.974;23.708;2023-05-14T04:59:55;11.52;;;5.20;;
80215;SDS011;69532;37.974;23.708;2023-05-14T05:02:20;6.88;;;4.22;;
80215;SDS011;69532;37.974;23.708;2023-05-14T05:04:46;8.75;;;4.60;;
80215;SDS011;69532;37.974;23.708;2023-05-14T05:07:12;7.00;;;4.40;;
80215;SDS011;69532;37.974;23.708;2023-05-14T05:09:38;6.15;;;3.75;;
80215;SDS011;69532;37.974;23.708;2023-05-14T05:12:04;7.85;;;4.55;;
80215;SDS011;69532;37.974;23.708;2023-05-14T05:14:30;6.53;;;4.25;;
80215;SDS011;69532;37.974;23.708;2023-05-14T05:16:56;8.68;;;4.53;;
80215;SDS011;69532;37.974;23.708;2023-05-14T05:19:22;7.15;;;4.45;;
80215;SDS011;69532;37.974;23.708;2023-05-14T05:21:47;8.05;;;4.78;;
80215;SDS011;69532;37.974;23.708;2023-05-14T05:24:13;6.25;;;3.80;;
80215;SDS011;69532;37.974;23.708;2023-05-14T05:26:39;7.30;;;3.90;;
80215;SDS011;69532;37.974;23.708;2023-05-14T05:29:05;7.13;;;4.22;;
80215;SDS011;69532;37.974;23.708;2023-05-14T05:31:31;7.13;;;4.45;;
80215;SDS011;69532;37.974;23.708;2023-05-14T05:33:58;7.57;;;4.30;;
80215;SDS011;69532;37.974;23.708;2023-05-14T05:36:24;6.85;;;4.05;;
80215;SDS011;69532;37.974;23.708;2023-05-14T05:38:49;6.22;;;3.67;;
80215;SDS011;69532;37.974;23.708;2023-05-14T05:41:15;7.07;;;4.07;;
80215;SDS011;69532;37.974;23.708;2023-05-14T05:43:41;6.63;;;4.20;;
80215;SDS011;69532;37.974;23.708;2023-05-14T05:46:06;6.22;;;3.75;;
80215;SDS011;69532;37.974;23.708;2023-05-14T05:48:32;7.43;;;3.90;;
80215;SDS011;69532;37.974;23.708;2023-05-14T05:50:58;6.93;;;4.10;;
80215;SDS011;69532;37.974;23.708;2023-05-14T05:53:24;6.22;;;3.70;;
80215;SDS011;69532;37.974;23.708;2023-05-14T05:55:50;7.95;;;4.00;;
80215;SDS011;69532;37.974;23.708;2023-05-14T05:58:18;6.43;;;4.05;;
80215;SDS011;69532;37.974;23.708;2023-05-14T06:00:44;7.45;;;4.47;;
80215;SDS011;69532;37.974;23.708;2023-05-14T06:03:11;5.97;;;4.10;;
80215;SDS011;69532;37.974;23.708;2023-05-14T06:05:37;6.20;;;4.28;;
80215;SDS011;69532;37.974;23.708;2023-05-14T06:08:03;6.93;;;3.97;;
80215;SDS011;69532;37.974;23.708;2023-05-14T06:10:29;6.68;;;4.53;;
80215;SDS011;69532;37.974;23.708;2023-05-14T06:12:55;6.30;;;4.25;;
80215;SDS011;69532;37.974;23.708;2023-05-14T06:15:21;7.03;;;4.32;;
80215;SDS011;69532;37.974;23.708;2023-05-14T06:17:47;6.63;;;4.28;;
80215;SDS011;69532;37.974;23.708;2023-05-14T06:20:12;6.88;;;4.15;;
80215;SDS011;69532;37.974;23.708;2023-05-14T06:22:38;6.68;;;4.28;;
80215;SDS011;69532;37.974;23.708;2023-05-14T06:25:04;7.25;;;4.00;;
80215;SDS011;69532;37.974;23.708;2023-05-14T06:27:30;6.40;;;4.00;;
80215;SDS011;69532;37.974;23.708;2023-05-14T06:29:55;6.65;;;3.75;;
80215;SDS011;69532;37.974;23.708;2023-05-14T06:32:21;6.10;;;4.00;;
80215;SDS011;69532;37.974;23.708;2023-05-14T06:34:47;6.85;;;4.13;;
80215;SDS011;69532;37.974;23.708;2023-05-14T06:37:13;6.97;;;4.25;;
80215;SDS011;69532;37.974;23.708;2023-05-14T06:39:38;6.53;;;3.72;;
80215;SDS011;69532;37.974;23.708;2023-05-14T06:42:08;7.10;;;4.10;;
80215;SDS011;69532;37.974;23.708;2023-05-14T06:44:33;9.60;;;4.32;;
80215;SDS011;69532;37.974;23.708;2023-05-14T06:47:00;6.88;;;4.20;;
80215;SDS011;69532;37.974;23.708;2023-05-14T06:49:25;6.28;;;4.00;;
80215;SDS011;69532;37.974;23.708;2023-05-14T06:51:51;5.78;;;3.88;;
80215;SDS011;69532;37.974;23.708;2023-05-14T06:54:18;6.45;;;3.70;;
80215;SDS011;69532;37.974;23.708;2023-05-14T06:56:44;6.60;;;3.92;;
80215;SDS011;69532;37.974;23.708;2023-05-14T06:59:10;7.25;;;4.43;;
80215;SDS011;69532;37.974;23.708;2023-05-14T07:01:36;7.22;;;4.18;;
80215;SDS011;69532;37.974;23.708;2023-05-14T07:04:01;6.25;;;4.00;;
80215;SDS011;69532;37.974;23.708;2023-05-14T07:06:27;6.07;;;3.80;;
80215;SDS011;69532;37.974;23.708;2023-05-14T07:08:53;7.35;;;4.07;;
80215;SDS011;69532;37.974;23.708;2023-05-14T07:11:19;6.30;;;3.85;;
80215;SDS011;69532;37.974;23.708;2023-05-14T07:13:46;8.07;;;4.20;;
80215;SDS011;69532;37.974;23.708;2023-05-14T07:16:11;6.57;;;4.20;;
80215;SDS011;69532;37.974;23.708;2023-05-14T07:18:37;6.07;;;4.03;;
80215;SDS011;69532;37.974;23.708;2023-05-14T07:21:03;8.30;;;4.13;;
80215;SDS011;69532;37.974;23.708;2023-05-14T07:23:30;6.20;;;3.70;;
80215;SDS011;69532;37.974;23.708;2023-05-14T07:25:56;6.40;;;3.85;;
80215;SDS011;69532;37.974;23.708;2023-05-14T07:28:22;7.13;;;3.80;;
80215;SDS011;69532;37.974;23.708;2023-05-14T07:30:48;7.25;;;4.15;;
80215;SDS011;69532;37.974;23.708;2023-05-14T07:33:13;6.47;;;4.00;;
80215;SDS011;69532;37.974;23.708;2023-05-14T07:35:39;7.10;;;4.00;;
80215;SDS011;69532;37.974;23.708;2023-05-14T07:38:05;6.47;;;3.85;;
80215;SDS011;69532;37.974;23.708;2023-05-14T07:40:31;6.78;;;4.13;;
80215;SDS011;69532;37.974;23.708;2023-05-14T07:42:56;7.40;;;4.13;;
80215;SDS011;69532;37.974;23.708;2023-05-14T07:45:22;6.68;;;4.25;;
80215;SDS011;69532;37.974;23.708;2023-05-14T07:47:48;6.80;;;4.22;;
80215;SDS011;69532;37.974;23.708;2023-05-14T07:50:17;6.97;;;4.05;;
80215;SDS011;69532;37.974;23.708;2023-05-14T07:52:43;6.20;;;3.70;;
80215;SDS011;69532;37.974;23.708;2023-05-14T07:55:09;6.47;;;3.95;;
80215;SDS011;69532;37.974;23.708;2023-05-14T07:57:36;6.40;;;3.95;;
80215;SDS011;69532;37.974;23.708;2023-05-14T08:00:02;6.30;;;3.90;;
80215;SDS011;69532;37.974;23.708;2023-05-14T08:02:28;6.88;;;4.10;;
80215;SDS011;69532;37.974;23.708;2023-05-14T08:04:54;6.40;;;3.40;;
80215;SDS011;69532;37.974;23.708;2023-05-14T08:07:20;6.45;;;3.90;;
80215;SDS011;69532;37.974;23.708;2023-05-14T08:09:45;6.43;;;3.45;;
80215;SDS011;69532;37.974;23.708;2023-05-14T08:12:11;6.38;;;3.72;;
80215;SDS011;69532;37.974;23.708;2023-05-14T08:14:37;6.32;;;4.00;;
80215;SDS011;69532;37.974;23.708;2023-05-14T08:17:03;6.80;;;4.10;;
80215;SDS011;69532;37.974;23.708;2023-05-14T08:19:28;6.75;;;3.90;;
80215;SDS011;69532;37.974;23.708;2023-05-14T08:21:54;7.30;;;3.90;;
80215;SDS011;69532;37.974;23.708;2023-05-14T08:24:20;7.80;;;3.97;;
80215;SDS011;69532;37.974;23.708;2023-05-14T08:26:46;6.07;;;3.40;;
80215;SDS011;69532;37.974;23.708;2023-05-14T08:29:11;7.03;;;4.07;;
80215;SDS011;69532;37.974;23.708;2023-05-14T08:31:37;6.30;;;3.92;;
80215;SDS011;69532;37.974;23.708;2023-05-14T08:34:03;6.90;;;3.83;;
80215;SDS011;69532;37.974;23.708;2023-05-14T08:36:28;7.50;;;4.00;;
80215;SDS011;69532;37.974;23.708;2023-05-14T08:38:55;6.60;;;3.88;;
80215;SDS011;69532;37.974;23.708;2023-05-14T08:41:21;6.28;;;3.92;;
80215;SDS011;69532;37.974;23.708;2023-05-14T08:44:06;6.68;;;3.88;;
80215;SDS011;69532;37.974;23.708;2023-05-14T08:46:35;7.43;;;4.63;;
80215;SDS011;69532;37.974;23.708;2023-05-14T08:49:20;6.63;;;4.57;;
80215;SDS011;69532;37.974;23.708;2023-05-14T08:51:55;7.22;;;4.10;;
80215;SDS011;69532;37.974;23.708;2023-05-14T08:54:22;6.57;;;3.90;;
80215;SDS011;69532;37.974;23.708;2023-05-14T08:56:50;7.53;;;4.28;;
80215;SDS011;69532;37.974;23.708;2023-05-14T08:59:16;7.50;;;4.60;;
80215;SDS011;69532;37.974;23.708;2023-05-14T09:01:45;6.63;;;3.97;;
80215;SDS011;69532;37.974;23.708;2023-05-14T09:04:14;7.45;;;4.20;;
80215;SDS011;69532;37.974;23.708;2023-05-14T09:06:40;8.05;;;4.30;;
80215;SDS011;69532;37.974;23.708;2023-05-14T09:09:07;8.43;;;4.50;;
80215;SDS011;69532;37.974;23.708;2023-05-14T09:11:39;7.80;;;4.10;;
80215;SDS011;69532;37.974;23.708;2023-05-14T09:14:05;6.45;;;4.15;;
80215;SDS011;69532;37.974;23.708;2023-05-14T09:16:31;7.22;;;4.60;;
80215;SDS011;69532;37.974;23.708;2023-05-14T09:18:57;7.45;;;4.55;;
80215;SDS011;69532;37.974;23.708;2023-05-14T09:21:22;7.55;;;4.40;;
80215;SDS011;69532;37.974;23.708;2023-05-14T09:23:52;9.25;;;4.65;;
80215;SDS011;69532;37.974;23.708;2023-05-14T09:26:22;9.52;;;5.03;;
80215;SDS011;69532;37.974;23.708;2023-05-14T09:28:52;6.88;;;4.60;;
80215;SDS011;69532;37.974;23.708;2023-05-14T09:31:19;7.70;;;4.25;;
80215;SDS011;69532;37.974;23.708;2023-05-14T09:33:48;7.85;;;4.88;;
80215;SDS011;69532;37.974;23.708;2023-05-14T09:36:15;7.57;;;4.47;;
80215;SDS011;69532;37.974;23.708;2023-05-14T09:38:41;8.57;;;4.70;;
80215;SDS011;69532;37.974;23.708;2023-05-14T09:41:06;8.63;;;4.68;;
80215;SDS011;69532;37.974;23.708;2023-05-14T09:43:32;7.28;;;4.18;;
80215;SDS011;69532;37.974;23.708;2023-05-14T09:45:58;6.93;;;4.43;;
80215;SDS011;69532;37.974;23.708;2023-05-14T09:48:24;8.00;;;4.50;;
80215;SDS011;69532;37.974;23.708;2023-05-14T09:50:50;6.95;;;4.03;;
80215;SDS011;69532;37.974;23.708;2023-05-14T09:53:18;8.95;;;4.45;;
80215;SDS011;69532;37.974;23.708;2023-05-14T09:55:44;7.93;;;4.68;;
80215;SDS011;69532;37.974;23.708;2023-05-14T09:58:10;8.70;;;4.72;;
80215;SDS011;69532;37.974;23.708;2023-05-14T10:00:38;8.82;;;4.40;;
80215;SDS011;69532;37.974;23.708;2023-05-14T10:03:06;7.60;;;4.65;;
80215;SDS011;69532;37.974;23.708;2023-05-14T10:05:36;7.80;;;4.13;;
80215;SDS011;69532;37.974;23.708;2023-05-14T10:10:41;8.32;;;4.15;;
80215;SDS011;69532;37.974;23.708;2023-05-14T10:13:10;8.00;;;4.13;;
80215;SDS011;69532;37.974;23.708;2023-05-14T10:15:39;6.55;;;4.20;;
80215;SDS011;69532;37.974;23.708;2023-05-14T10:18:15;8.35;;;4.60;;
80215;SDS011;69532;37.974;23.708;2023-05-14T10:20:43;6.85;;;4.15;;
80215;SDS011;69532;37.974;23.708;2023-05-14T10:23:12;8.32;;;4.43;;
80215;SDS011;69532;37.974;23.708;2023-05-14T10:25:39;8.10;;;4.60;;
80215;SDS011;69532;37.974;23.708;2023-05-14T10:28:05;7.72;;;4.10;;
80215;SDS011;69532;37.974;23.708;2023-05-14T10:30:31;9.25;;;4.32;;
80215;SDS011;69532;37.974;23.708;2023-05-14T10:33:07;7.30;;;4.25;;
80215;SDS011;69532;37.974;23.708;2023-05-14T10:38:25;7.85;;;4.45;;
80215;SDS011;69532;37.974;23.708;2023-05-14T10:41:01;6.95;;;3.92;;
80215;SDS011;69532;37.974;23.708;2023-05-14T10:43:41;7.07;;;4.18;;
80215;SDS011;69532;37.974;23.708;2023-05-14T10:46:08;9.07;;;4.85;;
80215;SDS011;69532;37.974;23.708;2023-05-14T10:48:36;7.65;;;5.00;;
80215;SDS011;69532;37.974;23.708;2023-05-14T10:51:03;7.35;;;4.60;;
80215;SDS011;69532;37.974;23.708;2023-05-14T10:53:35;10.00;;;5.50;;
80215;SDS011;69532;37.974;23.708;2023-05-14T10:56:06;8.93;;;5.28;;
80215;SDS011;69532;37.974;23.708;2023-05-14T10:58:37;10.45;;;6.25;;
80215;SDS011;69532;37.974;23.708;2023-05-14T11:01:07;9.15;;;5.97;;
80215;SDS011;69532;37.974;23.708;2023-05-14T11:03:39;10.15;;;6.30;;
80215;SDS011;69532;37.974;23.708;2023-05-14T11:06:10;15.57;;;6.60;;
80215;SDS011;69532;37.974;23.708;2023-05-14T11:08:38;8.77;;;6.00;;
80215;SDS011;69532;37.974;23.708;2023-05-14T11:11:04;10.52;;;6.30;;
80215;SDS011;69532;37.974;23.708;2023-05-14T11:13:31;9.57;;;6.03;;
80215;SDS011;69532;37.974;23.708;2023-05-14T11:15:58;7.28;;;5.47;;
80215;SDS011;69532;37.974;23.708;2023-05-14T11:18:26;10.48;;;5.88;;
80215;SDS011;69532;37.974;23.708;2023-05-14T11:20:53;11.70;;;6.18;;
80215;SDS011;69532;37.974;23.708;2023-05-14T11:23:22;8.85;;;6.18;;
80215;SDS011;69532;37.974;23.708;2023-05-14T11:25:50;9.68;;;5.97;;
80215;SDS011;69532;37.974;23.708;2023-05-14T11:28:22;9.05;;;5.35;;
80215;SDS011;69532;37.974;23.708;2023-05-14T11:30:50;9.40;;;6.05;;
80215;SDS011;69532;37.974;23.708;2023-05-14T11:33:18;9.10;;;5.85;;
80215;SDS011;69532;37.974;23.708;2023-05-14T11:35:44;9.52;;;5.45;;
80215;SDS011;69532;37.974;23.708;2023-05-14T11:38:17;8.93;;;5.65;;
80215;SDS011;69532;37.974;23.708;2023-05-14T11:40:53;8.18;;;5.57;;
80215;SDS011;69532;37.974;23.708;2023-05-14T11:43:20;8.88;;;5.38;;
80215;SDS011;69532;37.974;23.708;2023-05-14T11:45:49;10.18;;;5.28;;
80215;SDS011;69532;37.974;23.708;2023-05-14T11:48:16;9.75;;;5.20;;
80215;SDS011;69532;37.974;23.708;2023-05-14T11:50:51;9.27;;;5.30;;
80215;SDS011;69532;37.974;23.708;2023-05-14T11:55:44;8.82;;;4.85;;
80215;SDS011;69532;37.974;23.708;2023-05-14T11:58:11;9.27;;;5.40;;
80215;SDS011;69532;37.974;23.708;2023-05-14T12:00:38;7.55;;;4.57;;
80215;SDS011;69532;37.974;23.708;2023-05-14T12:03:04;8.32;;;4.80;;
80215;SDS011;69532;37.974;23.708;2023-05-14T12:05:30;8.93;;;5.05;;
80215;SDS011;69532;37.974;23.708;2023-05-14T12:07:56;8.88;;;4.90;;
80215;SDS011;69532;37.974;23.708;2023-05-14T12:10:22;8.25;;;4.80;;
80215;SDS011;69532;37.974;23.708;2023-05-14T12:12:48;9.10;;;4.65;;
80215;SDS011;69532;37.974;23.708;2023-05-14T12:15:14;7.80;;;4.68;;
80215;SDS011;69532;37.974;23.708;2023-05-14T12:17:41;10.52;;;5.22;;
80215;SDS011;69532;37.974;23.708;2023-05-14T12:20:07;6.70;;;4.18;;
80215;SDS011;69532;37.974;23.708;2023-05-14T12:22:35;8.50;;;5.28;;
80215;SDS011;69532;37.974;23.708;2023-05-14T12:25:01;8.07;;;4.75;;
80215;SDS011;69532;37.974;23.708;2023-05-14T12:27:28;8.13;;;4.50;;
80215;SDS011;69532;37.974;23.708;2023-05-14T12:30:00;7.78;;;4.40;;
80215;SDS011;69532;37.974;23.708;2023-05-14T12:32:31;7.70;;;4.70;;
80215;SDS011;69532;37.974;23.708;2023-05-14T12:34:57;7.00;;;4.45;;
80215;SDS011;69532;37.974;23.708;2023-05-14T12:37:23;6.47;;;4.15;;
80215;SDS011;69532;37.974;23.708;2023-05-14T12:39:49;9.15;;;4.80;;
80215;SDS011;69532;37.974;23.708;2023-05-14T12:42:14;8.05;;;4.13;;
80215;SDS011;69532;37.974;23.708;2023-05-14T12:44:40;8.10;;;4.40;;
80215;SDS011;69532;37.974;23.708;2023-05-14T12:47:06;7.97;;;4.80;;
80215;SDS011;69532;37.974;23.708;2023-05-14T12:49:32;6.68;;;4.70;;
80215;SDS011;69532;37.974;23.708;2023-05-14T12:51:57;6.80;;;4.65;;
80215;SDS011;69532;37.974;23.708;2023-05-14T12:54:23;8.07;;;4.85;;
80215;SDS011;69532;37.974;23.708;2023-05-14T12:56:49;7.82;;;4.25;;
80215;SDS011;69532;37.974;23.708;2023-05-14T12:59:15;8.93;;;4.90;;
80215;SDS011;69532;37.974;23.708;2023-05-14T13:01:41;6.53;;;4.35;;
80215;SDS011;69532;37.974;23.708;2023-05-14T13:04:06;9.82;;;4.43;;
80215;SDS011;69532;37.974;23.708;2023-05-14T13:06:36;7.70;;;4.38;;
80215;SDS011;69532;37.974;23.708;2023-05-14T13:09:02;8.25;;;4.30;;
80215;SDS011;69532;37.974;23.708;2023-05-14T13:11:28;8.07;;;4.40;;
80215;SDS011;69532;37.974;23.708;2023-05-14T13:13:56;8.05;;;4.40;;
80215;SDS011;69532;37.974;23.708;2023-05-14T13:16:26;8.15;;;4.55;;
80215;SDS011;69532;37.974;23.708;2023-05-14T13:18:52;7.50;;;4.45;;
80215;SDS011;69532;37.974;23.708;2023-05-14T13:21:18;8.93;;;4.43;;
80215;SDS011;69532;37.974;23.708;2023-05-14T13:23:44;6.65;;;4.43;;
80215;SDS011;69532;37.974;23.708;2023-05-14T13:26:10;6.68;;;3.97;;
80215;SDS011;69532;37.974;23.708;2023-05-14T13:28:36;6.97;;;4.45;;
80215;SDS011;69532;37.974;23.708;2023-05-14T13:31:11;7.30;;;3.83;;
80215;SDS011;69532;37.974;23.708;2023-05-14T13:33:39;9.23;;;4.85;;
80215;SDS011;69532;37.974;23.708;2023-05-14T13:36:06;8.63;;;4.38;;
80215;SDS011;69532;37.974;23.708;2023-05-14T13:38:33;6.20;;;4.10;;
80215;SDS011;69532;37.974;23.708;2023-05-14T13:40:59;7.90;;;4.40;;
80215;SDS011;69532;37.974;23.708;2023-05-14T13:43:28;6.15;;;3.88;;
80215;SDS011;69532;37.974;23.708;2023-05-14T13:45:58;8.00;;;4.28;;
80215;SDS011;69532;37.974;23.708;2023-05-14T13:48:25;6.95;;;4.10;;
80215;SDS011;69532;37.974;23.708;2023-05-14T13:50:51;6.43;;;4.13;;
80215;SDS011;69532;37.974;23.708;2023-05-14T13:53:18;6.75;;;4.00;;
80215;SDS011;69532;37.974;23.708;2023-05-14T13:55:44;7.15;;;4.30;;
80215;SDS011;69532;37.974;23.708;2023-05-14T13:58:09;6.95;;;4.10;;
80215;SDS011;69532;37.974;23.708;2023-05-14T14:00:35;6.35;;;3.80;;
80215;SDS011;69532;37.974;23.708;2023-05-14T14:03:01;6.93;;;3.72;;
80215;SDS011;69532;37.974;23.708;2023-05-14T14:05:27;6.93;;;3.97;;
80215;SDS011;69532;37.974;23.708;2023-05-14T14:07:53;8.10;;;3.90;;
80215;SDS011;69532;37.974;23.708;2023-05-14T14:10:20;8.63;;;4.10;;
80215;SDS011;69532;37.974;23.708;2023-05-14T14:12:46;6.57;;;3.88;;
80215;SDS011;69532;37.974;23.708;2023-05-14T14:15:12;7.40;;;4.45;;
80215;SDS011;69532;37.974;23.708;2023-05-14T14:17:38;6.63;;;3.78;;
80215;SDS011;69532;37.974;23.708;2023-05-14T14:20:07;9.10;;;4.05;;
80215;SDS011;69532;37.974;23.708;2023-05-14T14:22:33;6.05;;;3.58;;
80215;SDS011;69532;37.974;23.708;2023-05-14T14:25:00;7.40;;;4.05;;
80215;SDS011;69532;37.974;23.708;2023-05-14T14:27:26;6.03;;;3.88;;
80215;SDS011;69532;37.974;23.708;2023-05-14T14:29:52;6.15;;;3.80;;
80215;SDS011;69532;37.974;23.708;2023-05-14T14:32:17;7.45;;;3.50;;
80215;SDS011;69532;37.974;23.708;2023-05-14T14:34:44;6.55;;;3.55;;
80215;SDS011;69532;37.974;23.708;2023-05-14T14:37:10;6.10;;;3.58;;
80215;SDS011;69532;37.974;23.708;2023-05-14T14:39:36;6.88;;;3.63;;
80215;SDS011;69532;37.974;23.708;2023-05-14T14:42:01;6.55;;;3.60;;